sensor_id;sensor_type;location;lat;lon;timestamp;P1;durP1;ratioP1;P2;durP2;ratioP2
25057;SDS011;13057;50.978;11.034;2023-05-07T00:02:02;31.77;;;18.48;;
25057;SDS011;13057;50.978;11.034;2023-05-07T00:04:28;31.73;;;18.48;;
25057;SDS011;13057;50.978;11.034;2023-05-07T00:07:01;29.75;;;18.65;;
25057;SDS011;13057;50.978;11.034;2023-05-07T00:09:27;30.70;;;18.73;;
25057;SDS011;13057;50.978;11.034;2023-05-07T00:11:53;32.33;;;18.48;;
25057;SDS011;13057;50.978;11.034;2023-05-07T00:14:19;29.95;;;19.20;;
25057;SDS011;13057;50.978;11.034;2023-05-07T00:16:46;31.42;;;19.60;;
25057;SDS011;13057;50.978;11.034;2023-05-07T00:19:12;29.15;;;18.25;;
25057;SDS011;13057;50.978;11.034;2023-05-07T00:21:38;33.40;;;20.27;;
25057;SDS011;13057;50.978;11.034;2023-05-07T00:24:03;33.38;;;17.17;;
25057;SDS011;13057;50.978;11.034;2023-05-07T00:26:30;31.05;;;18.55;;
25057;SDS011;13057;50.978;11.034;2023-05-07T00:28:55;38.17;;;21.45;;
25057;SDS011;13057;50.978;11.034;2023-05-07T00:31:21;28.70;;;18.55;;
25057;SDS011;13057;50.978;11.034;2023-05-07T00:33:47;31.40;;;18.15;;
25057;SDS011;13057;50.978;11.034;2023-05-07T00:36:13;28.25;;;17.10;;
25057;SDS011;13057;50.978;11.034;2023-05-07T00:38:39;29.48;;;18.00;;
25057;SDS011;13057;50.978;11.034;2023-05-07T00:41:05;29.88;;;16.90;;
25057;SDS011;13057;50.978;11.034;2023-05-07T00:43:31;31.05;;;17.35;;
25057;SDS011;13057;50.978;11.034;2023-05-07T00:45:57;29.73;;;18.40;;
25057;SDS011;13057;50.978;11.034;2023-05-07T00:48:23;28.83;;;16.98;;
25057;SDS011;13057;50.978;11.034;2023-05-07T00:50:50;32.35;;;18.00;;
25057;SDS011;13057;50.978;11.034;2023-05-07T00:53:17;30.45;;;17.45;;
25057;SDS011;13057;50.978;11.034;2023-05-07T00:55:43;30.20;;;18.50;;
25057;SDS011;13057;50.978;11.034;2023-05-07T00:58:09;32.20;;;18.48;;
25057;SDS011;13057;50.978;11.034;2023-05-07T01:00:35;35.05;;;18.02;;
25057;SDS011;13057;50.978;11.034;2023-05-07T01:03:01;35.78;;;19.30;;
25057;SDS011;13057;50.978;11.034;2023-05-07T01:05:27;34.70;;;19.02;;
25057;SDS011;13057;50.978;11.034;2023-05-07T01:07:54;33.92;;;19.13;;
25057;SDS011;13057;50.978;11.034;2023-05-07T01:10:21;32.58;;;18.45;;
25057;SDS011;13057;50.978;11.034;2023-05-07T01:12:48;34.00;;;18.98;;
25057;SDS011;13057;50.978;11.034;2023-05-07T01:15:15;38.25;;;19.55;;
25057;SDS011;13057;50.978;11.034;2023-05-07T01:17:42;34.00;;;18.83;;
25057;SDS011;13057;50.978;11.034;2023-05-07T01:20:08;35.47;;;18.80;;
25057;SDS011;13057;50.978;11.034;2023-05-07T01:22:35;32.28;;;17.50;;
25057;SDS011;13057;50.978;11.034;2023-05-07T01:25:04;36.08;;;19.42;;
25057;SDS011;13057;50.978;11.034;2023-05-07T01:27:31;32.85;;;18.10;;
25057;SDS011;13057;50.978;11.034;2023-05-07T01:29:58;29.60;;;17.40;;
25057;SDS011;13057;50.978;11.034;2023-05-07T01:32:28;34.45;;;18.92;;
25057;SDS011;13057;50.978;11.034;2023-05-07T01:34:58;31.35;;;17.20;;
25057;SDS011;13057;50.978;11.034;2023-05-07T01:37:26;32.88;;;18.05;;
25057;SDS011;13057;50.978;11.034;2023-05-07T01:39:52;33.42;;;17.73;;
25057;SDS011;13057;50.978;11.034;2023-05-07T01:42:19;31.13;;;17.33;;
25057;SDS011;13057;50.978;11.034;2023-05-07T01:44:45;34.35;;;17.95;;
25057;SDS011;13057;50.978;11.034;2023-05-07T01:47:11;33.97;;;17.05;;
25057;SDS011;13057;50.978;11.034;2023-05-07T01:49:38;33.60;;;17.58;;
25057;SDS011;13057;50.978;11.034;2023-05-07T01:52:05;32.40;;;17.52;;
25057;SDS011;13057;50.978;11.034;2023-05-07T01:54:31;34.35;;;18.38;;
25057;SDS011;13057;50.978;11.034;2023-05-07T01:56:57;31.63;;;18.27;;
25057;SDS011;13057;50.978;11.034;2023-05-07T01:59:23;37.70;;;18.60;;
25057;SDS011;13057;50.978;11.034;2023-05-07T02:01:49;33.67;;;17.70;;
25057;SDS011;13057;50.978;11.034;2023-05-07T02:04:14;35.15;;;18.38;;
25057;SDS011;13057;50.978;11.034;2023-05-07T02:06:40;32.40;;;17.60;;
25057;SDS011;13057;50.978;11.034;2023-05-07T02:09:06;35.65;;;17.60;;
25057;SDS011;13057;50.978;11.034;2023-05-07T02:11:34;37.20;;;17.77;;
25057;SDS011;13057;50.978;11.034;2023-05-07T02:14:00;37.25;;;18.42;;
25057;SDS011;13057;50.978;11.034;2023-05-07T02:16:26;32.22;;;18.00;;
25057;SDS011;13057;50.978;11.034;2023-05-07T02:18:51;33.60;;;17.38;;
25057;SDS011;13057;50.978;11.034;2023-05-07T02:21:17;37.45;;;17.92;;
25057;SDS011;13057;50.978;11.034;2023-05-07T02:23:43;33.40;;;17.30;;
25057;SDS011;13057;50.978;11.034;2023-05-07T02:26:10;30.80;;;16.55;;
25057;SDS011;13057;50.978;11.034;2023-05-07T02:28:36;35.60;;;18.38;;
25057;SDS011;13057;50.978;11.034;2023-05-07T02:31:02;37.55;;;18.60;;
25057;SDS011;13057;50.978;11.034;2023-05-07T02:33:29;32.05;;;17.65;;
25057;SDS011;13057;50.978;11.034;2023-05-07T02:35:55;36.25;;;17.65;;
25057;SDS011;13057;50.978;11.034;2023-05-07T02:38:21;34.33;;;17.50;;
25057;SDS011;13057;50.978;11.034;2023-05-07T02:40:48;32.17;;;17.48;;
25057;SDS011;13057;50.978;11.034;2023-05-07T02:43:14;34.42;;;17.88;;
25057;SDS011;13057;50.978;11.034;2023-05-07T02:45:40;32.53;;;17.55;;
25057;SDS011;13057;50.978;11.034;2023-05-07T02:48:06;34.22;;;18.33;;
25057;SDS011;13057;50.978;11.034;2023-05-07T02:50:32;37.50;;;17.73;;
25057;SDS011;13057;50.978;11.034;2023-05-07T02:52:58;34.40;;;19.08;;
25057;SDS011;13057;50.978;11.034;2023-05-07T02:55:24;34.42;;;18.13;;
25057;SDS011;13057;50.978;11.034;2023-05-07T02:57:50;33.63;;;18.58;;
25057;SDS011;13057;50.978;11.034;2023-05-07T03:00:17;32.30;;;17.80;;
25057;SDS011;13057;50.978;11.034;2023-05-07T03:02:44;31.50;;;17.58;;
25057;SDS011;13057;50.978;11.034;2023-05-07T03:05:10;34.30;;;18.50;;
25057;SDS011;13057;50.978;11.034;2023-05-07T03:07:36;31.80;;;17.70;;
25057;SDS011;13057;50.978;11.034;2023-05-07T03:10:03;30.45;;;18.13;;
25057;SDS011;13057;50.978;11.034;2023-05-07T03:12:30;34.92;;;18.17;;
25057;SDS011;13057;50.978;11.034;2023-05-07T03:14:56;35.30;;;18.65;;
25057;SDS011;13057;50.978;11.034;2023-05-07T03:17:22;29.23;;;16.63;;
25057;SDS011;13057;50.978;11.034;2023-05-07T03:19:48;30.73;;;18.38;;
25057;SDS011;13057;50.978;11.034;2023-05-07T03:22:14;37.03;;;21.58;;
25057;SDS011;13057;50.978;11.034;2023-05-07T03:24:40;30.13;;;16.98;;
25057;SDS011;13057;50.978;11.034;2023-05-07T03:27:06;27.80;;;16.17;;
25057;SDS011;13057;50.978;11.034;2023-05-07T03:29:32;25.33;;;15.30;;
25057;SDS011;13057;50.978;11.034;2023-05-07T03:31:58;27.25;;;16.65;;
25057;SDS011;13057;50.978;11.034;2023-05-07T03:34:23;28.50;;;16.45;;
25057;SDS011;13057;50.978;11.034;2023-05-07T03:36:49;29.20;;;15.85;;
25057;SDS011;13057;50.978;11.034;2023-05-07T03:39:16;24.42;;;14.88;;
25057;SDS011;13057;50.978;11.034;2023-05-07T03:41:42;27.13;;;14.38;;
25057;SDS011;13057;50.978;11.034;2023-05-07T03:44:07;25.27;;;14.15;;
25057;SDS011;13057;50.978;11.034;2023-05-07T03:46:33;28.40;;;14.88;;
25057;SDS011;13057;50.978;11.034;2023-05-07T03:49:00;27.98;;;14.25;;
25057;SDS011;13057;50.978;11.034;2023-05-07T03:51:26;24.27;;;13.90;;
25057;SDS011;13057;50.978;11.034;2023-05-07T03:53:51;28.23;;;14.70;;
25057;SDS011;13057;50.978;11.034;2023-05-07T03:56:18;25.67;;;14.07;;
25057;SDS011;13057;50.978;11.034;2023-05-07T03:58:45;25.83;;;13.32;;
25057;SDS011;13057;50.978;11.034;2023-05-07T04:01:10;26.35;;;13.38;;
25057;SDS011;13057;50.978;11.034;2023-05-07T04:03:37;25.70;;;13.68;;
25057;SDS011;13057;50.978;11.034;2023-05-07T04:06:02;28.38;;;14.63;;
25057;SDS011;13057;50.978;11.034;2023-05-07T04:08:29;24.92;;;13.82;;
25057;SDS011;13057;50.978;11.034;2023-05-07T04:10:55;27.92;;;14.35;;
25057;SDS011;13057;50.978;11.034;2023-05-07T04:13:21;30.63;;;13.98;;
25057;SDS011;13057;50.978;11.034;2023-05-07T04:15:50;29.55;;;14.82;;
25057;SDS011;13057;50.978;11.034;2023-05-07T04:18:17;24.83;;;14.48;;
25057;SDS011;13057;50.978;11.034;2023-05-07T04:20:43;31.05;;;15.13;;
25057;SDS011;13057;50.978;11.034;2023-05-07T04:23:08;31.90;;;15.98;;
25057;SDS011;13057;50.978;11.034;2023-05-07T04:25:34;28.80;;;15.55;;
25057;SDS011;13057;50.978;11.034;2023-05-07T04:28:01;25.77;;;15.00;;
25057;SDS011;13057;50.978;11.034;2023-05-07T04:30:27;24.27;;;13.98;;
25057;SDS011;13057;50.978;11.034;2023-05-07T04:32:52;23.10;;;13.35;;
25057;SDS011;13057;50.978;11.034;2023-05-07T04:35:18;23.95;;;12.50;;
25057;SDS011;13057;50.978;11.034;2023-05-07T04:37:44;24.33;;;13.35;;
25057;SDS011;13057;50.978;11.034;2023-05-07T04:40:10;22.05;;;11.88;;
25057;SDS011;13057;50.978;11.034;2023-05-07T04:42:36;21.35;;;12.00;;
25057;SDS011;13057;50.978;11.034;2023-05-07T04:45:02;21.27;;;11.80;;
25057;SDS011;13057;50.978;11.034;2023-05-07T04:47:28;19.73;;;11.35;;
25057;SDS011;13057;50.978;11.034;2023-05-07T04:49:54;19.80;;;11.07;;
25057;SDS011;13057;50.978;11.034;2023-05-07T04:52:20;19.55;;;11.18;;
25057;SDS011;13057;50.978;11.034;2023-05-07T04:54:46;17.77;;;10.82;;
25057;SDS011;13057;50.978;11.034;2023-05-07T04:57:12;17.90;;;10.77;;
25057;SDS011;13057;50.978;11.034;2023-05-07T04:59:38;16.38;;;10.38;;
25057;SDS011;13057;50.978;11.034;2023-05-07T05:02:04;17.45;;;10.10;;
25057;SDS011;13057;50.978;11.034;2023-05-07T05:04:30;18.48;;;10.52;;
25057;SDS011;13057;50.978;11.034;2023-05-07T05:06:56;16.95;;;10.45;;
25057;SDS011;13057;50.978;11.034;2023-05-07T05:09:21;15.32;;;9.88;;
25057;SDS011;13057;50.978;11.034;2023-05-07T05:11:47;17.63;;;11.07;;
25057;SDS011;13057;50.978;11.034;2023-05-07T05:14:13;16.67;;;10.45;;
25057;SDS011;13057;50.978;11.034;2023-05-07T05:16:39;17.77;;;10.23;;
25057;SDS011;13057;50.978;11.034;2023-05-07T05:19:05;18.92;;;11.10;;
25057;SDS011;13057;50.978;11.034;2023-05-07T05:21:31;17.55;;;11.60;;
25057;SDS011;13057;50.978;11.034;2023-05-07T05:23:58;17.67;;;10.85;;
25057;SDS011;13057;50.978;11.034;2023-05-07T05:26:24;21.80;;;12.35;;
25057;SDS011;13057;50.978;11.034;2023-05-07T05:28:49;21.30;;;12.70;;
25057;SDS011;13057;50.978;11.034;2023-05-07T05:31:16;21.05;;;13.20;;
25057;SDS011;13057;50.978;11.034;2023-05-07T05:33:42;23.27;;;13.70;;
25057;SDS011;13057;50.978;11.034;2023-05-07T05:36:09;24.65;;;13.57;;
25057;SDS011;13057;50.978;11.034;2023-05-07T05:38:36;22.95;;;13.63;;
25057;SDS011;13057;50.978;11.034;2023-05-07T05:41:01;24.05;;;14.35;;
25057;SDS011;13057;50.978;11.034;2023-05-07T05:43:27;20.60;;;12.88;;
25057;SDS011;13057;50.978;11.034;2023-05-07T05:45:55;22.20;;;14.00;;
25057;SDS011;13057;50.978;11.034;2023-05-07T05:48:21;23.40;;;13.50;;
25057;SDS011;13057;50.978;11.034;2023-05-07T05:50:47;24.15;;;14.13;;
25057;SDS011;13057;50.978;11.034;2023-05-07T05:53:13;25.77;;;13.90;;
25057;SDS011;13057;50.978;11.034;2023-05-07T05:55:39;23.15;;;13.73;;
25057;SDS011;13057;50.978;11.034;2023-05-07T05:58:06;23.48;;;14.00;;
25057;SDS011;13057;50.978;11.034;2023-05-07T06:00:32;22.42;;;13.07;;
25057;SDS011;13057;50.978;11.034;2023-05-07T06:02:58;22.15;;;13.25;;
25057;SDS011;13057;50.978;11.034;2023-05-07T06:05:24;23.38;;;14.40;;
25057;SDS011;13057;50.978;11.034;2023-05-07T06:07:50;21.88;;;13.55;;
25057;SDS011;13057;50.978;11.034;2023-05-07T06:10:15;21.42;;;13.65;;
25057;SDS011;13057;50.978;11.034;2023-05-07T06:12:41;21.08;;;13.02;;
25057;SDS011;13057;50.978;11.034;2023-05-07T06:15:07;24.35;;;12.23;;
25057;SDS011;13057;50.978;11.034;2023-05-07T06:17:33;23.95;;;13.40;;
25057;SDS011;13057;50.978;11.034;2023-05-07T06:19:59;24.05;;;12.95;;
25057;SDS011;13057;50.978;11.034;2023-05-07T06:22:26;23.60;;;12.98;;
25057;SDS011;13057;50.978;11.034;2023-05-07T06:24:52;22.52;;;12.95;;
25057;SDS011;13057;50.978;11.034;2023-05-07T06:27:18;19.70;;;12.15;;
25057;SDS011;13057;50.978;11.034;2023-05-07T06:29:44;18.63;;;11.63;;
25057;SDS011;13057;50.978;11.034;2023-05-07T06:32:11;18.92;;;11.07;;
25057;SDS011;13057;50.978;11.034;2023-05-07T06:34:38;19.10;;;11.30;;
25057;SDS011;13057;50.978;11.034;2023-05-07T06:37:04;17.42;;;10.52;;
25057;SDS011;13057;50.978;11.034;2023-05-07T06:39:30;15.75;;;10.23;;
25057;SDS011;13057;50.978;11.034;2023-05-07T06:41:57;17.27;;;10.45;;
25057;SDS011;13057;50.978;11.034;2023-05-07T06:44:23;16.67;;;10.18;;
25057;SDS011;13057;50.978;11.034;2023-05-07T06:46:49;19.10;;;10.63;;
25057;SDS011;13057;50.978;11.034;2023-05-07T06:49:15;17.00;;;10.20;;
25057;SDS011;13057;50.978;11.034;2023-05-07T06:51:42;18.48;;;10.50;;
25057;SDS011;13057;50.978;11.034;2023-05-07T06:54:08;17.13;;;10.45;;
25057;SDS011;13057;50.978;11.034;2023-05-07T06:56:33;17.17;;;10.00;;
25057;SDS011;13057;50.978;11.034;2023-05-07T06:59:00;17.20;;;9.40;;
25057;SDS011;13057;50.978;11.034;2023-05-07T07:01:27;14.10;;;9.40;;
25057;SDS011;13057;50.978;11.034;2023-05-07T07:03:53;15.13;;;9.05;;
25057;SDS011;13057;50.978;11.034;2023-05-07T07:06:19;14.02;;;8.98;;
25057;SDS011;13057;50.978;11.034;2023-05-07T07:08:45;15.25;;;8.98;;
25057;SDS011;13057;50.978;11.034;2023-05-07T07:11:12;14.30;;;9.10;;
25057;SDS011;13057;50.978;11.034;2023-05-07T07:13:38;14.15;;;8.93;;
25057;SDS011;13057;50.978;11.034;2023-05-07T07:16:05;16.20;;;9.00;;
25057;SDS011;13057;50.978;11.034;2023-05-07T07:18:32;12.35;;;8.20;;
25057;SDS011;13057;50.978;11.034;2023-05-07T07:20:58;14.88;;;9.23;;
25057;SDS011;13057;50.978;11.034;2023-05-07T07:23:24;12.20;;;8.43;;
25057;SDS011;13057;50.978;11.034;2023-05-07T07:25:51;14.98;;;8.48;;
25057;SDS011;13057;50.978;11.034;2023-05-07T07:28:17;12.25;;;8.25;;
25057;SDS011;13057;50.978;11.034;2023-05-07T07:30:43;14.77;;;8.65;;
25057;SDS011;13057;50.978;11.034;2023-05-07T07:33:09;13.45;;;8.20;;
25057;SDS011;13057;50.978;11.034;2023-05-07T07:35:35;13.88;;;7.88;;
25057;SDS011;13057;50.978;11.034;2023-05-07T07:38:01;11.38;;;7.30;;
25057;SDS011;13057;50.978;11.034;2023-05-07T07:40:27;12.45;;;8.65;;
25057;SDS011;13057;50.978;11.034;2023-05-07T07:42:53;13.27;;;8.95;;
25057;SDS011;13057;50.978;11.034;2023-05-07T07:45:19;15.88;;;8.68;;
25057;SDS011;13057;50.978;11.034;2023-05-07T07:47:45;14.60;;;8.65;;
25057;SDS011;13057;50.978;11.034;2023-05-07T07:50:11;14.73;;;9.05;;
25057;SDS011;13057;50.978;11.034;2023-05-07T07:52:37;15.35;;;8.82;;
25057;SDS011;13057;50.978;11.034;2023-05-07T07:55:03;15.35;;;8.85;;
25057;SDS011;13057;50.978;11.034;2023-05-07T07:57:30;13.35;;;9.38;;
25057;SDS011;13057;50.978;11.034;2023-05-07T07:59:56;15.27;;;8.45;;
25057;SDS011;13057;50.978;11.034;2023-05-07T08:02:22;17.00;;;8.95;;
25057;SDS011;13057;50.978;11.034;2023-05-07T08:04:48;15.27;;;9.55;;
25057;SDS011;13057;50.978;11.034;2023-05-07T08:07:13;15.25;;;8.82;;
25057;SDS011;13057;50.978;11.034;2023-05-07T08:09:40;15.70;;;9.55;;
25057;SDS011;13057;50.978;11.034;2023-05-07T08:12:06;14.02;;;9.10;;
25057;SDS011;13057;50.978;11.034;2023-05-07T08:14:33;12.15;;;8.55;;
25057;SDS011;13057;50.978;11.034;2023-05-07T08:16:59;15.50;;;8.73;;
25057;SDS011;13057;50.978;11.034;2023-05-07T08:19:26;12.50;;;8.63;;
25057;SDS011;13057;50.978;11.034;2023-05-07T08:21:51;14.73;;;9.50;;
25057;SDS011;13057;50.978;11.034;2023-05-07T08:24:17;14.15;;;8.93;;
25057;SDS011;13057;50.978;11.034;2023-05-07T08:26:44;12.35;;;7.97;;
25057;SDS011;13057;50.978;11.034;2023-05-07T08:29:10;13.45;;;8.35;;
25057;SDS011;13057;50.978;11.034;2023-05-07T08:31:36;13.82;;;8.43;;
25057;SDS011;13057;50.978;11.034;2023-05-07T08:34:05;13.90;;;8.68;;
25057;SDS011;13057;50.978;11.034;2023-05-07T08:36:32;14.50;;;8.63;;
25057;SDS011;13057;50.978;11.034;2023-05-07T08:38:58;14.50;;;9.40;;
25057;SDS011;13057;50.978;11.034;2023-05-07T08:41:24;13.43;;;8.65;;
25057;SDS011;13057;50.978;11.034;2023-05-07T08:43:50;13.90;;;8.68;;
25057;SDS011;13057;50.978;11.034;2023-05-07T08:46:17;17.02;;;9.38;;
25057;SDS011;13057;50.978;11.034;2023-05-07T08:48:45;15.70;;;9.75;;
25057;SDS011;13057;50.978;11.034;2023-05-07T08:51:16;15.40;;;9.65;;
25057;SDS011;13057;50.978;11.034;2023-05-07T08:53:43;15.88;;;9.90;;
25057;SDS011;13057;50.978;11.034;2023-05-07T08:56:09;17.02;;;10.35;;
25057;SDS011;13057;50.978;11.034;2023-05-07T08:58:35;16.33;;;10.15;;
25057;SDS011;13057;50.978;11.034;2023-05-07T09:01:02;15.73;;;10.02;;
25057;SDS011;13057;50.978;11.034;2023-05-07T09:03:33;17.50;;;10.13;;
25057;SDS011;13057;50.978;11.034;2023-05-07T09:05:59;14.55;;;9.93;;
25057;SDS011;13057;50.978;11.034;2023-05-07T09:08:25;17.20;;;10.25;;
25057;SDS011;13057;50.978;11.034;2023-05-07T09:10:52;14.43;;;9.15;;
25057;SDS011;13057;50.978;11.034;2023-05-07T09:13:19;19.40;;;10.52;;
25057;SDS011;13057;50.978;11.034;2023-05-07T09:15:45;15.55;;;9.90;;
25057;SDS011;13057;50.978;11.034;2023-05-07T09:18:12;18.33;;;10.73;;
25057;SDS011;13057;50.978;11.034;2023-05-07T09:20:38;16.65;;;10.32;;
25057;SDS011;13057;50.978;11.034;2023-05-07T09:23:11;17.48;;;10.77;;
25057;SDS011;13057;50.978;11.034;2023-05-07T09:25:39;16.83;;;10.55;;
25057;SDS011;13057;50.978;11.034;2023-05-07T09:28:05;17.50;;;11.20;;
25057;SDS011;13057;50.978;11.034;2023-05-07T09:30:32;18.00;;;11.00;;
25057;SDS011;13057;50.978;11.034;2023-05-07T09:33:00;20.83;;;11.18;;
25057;SDS011;13057;50.978;11.034;2023-05-07T09:35:26;17.10;;;11.23;;
25057;SDS011;13057;50.978;11.034;2023-05-07T09:37:59;15.77;;;9.82;;
25057;SDS011;13057;50.978;11.034;2023-05-07T09:40:27;17.73;;;10.02;;
25057;SDS011;13057;50.978;11.034;2023-05-07T09:42:54;13.95;;;9.88;;
25057;SDS011;13057;50.978;11.034;2023-05-07T09:45:25;16.65;;;10.20;;
25057;SDS011;13057;50.978;11.034;2023-05-07T09:47:53;14.27;;;10.07;;
25057;SDS011;13057;50.978;11.034;2023-05-07T09:50:22;14.45;;;9.93;;
25057;SDS011;13057;50.978;11.034;2023-05-07T09:52:54;15.75;;;10.07;;
25057;SDS011;13057;50.978;11.034;2023-05-07T09:55:21;16.38;;;10.20;;
25057;SDS011;13057;50.978;11.034;2023-05-07T09:57:49;18.40;;;10.25;;
25057;SDS011;13057;50.978;11.034;2023-05-07T10:00:17;16.55;;;9.73;;
25057;SDS011;13057;50.978;11.034;2023-05-07T10:02:49;15.50;;;9.75;;
25057;SDS011;13057;50.978;11.034;2023-05-07T10:05:20;13.05;;;9.35;;
25057;SDS011;13057;50.978;11.034;2023-05-07T10:07:47;17.42;;;10.10;;
25057;SDS011;13057;50.978;11.034;2023-05-07T10:10:14;15.05;;;9.45;;
25057;SDS011;13057;50.978;11.034;2023-05-07T10:12:41;12.82;;;9.15;;
25057;SDS011;13057;50.978;11.034;2023-05-07T10:15:07;13.63;;;9.43;;
25057;SDS011;13057;50.978;11.034;2023-05-07T10:17:36;15.80;;;10.05;;
25057;SDS011;13057;50.978;11.034;2023-05-07T10:20:04;17.08;;;11.05;;
25057;SDS011;13057;50.978;11.034;2023-05-07T10:22:37;17.73;;;10.70;;
25057;SDS011;13057;50.978;11.034;2023-05-07T10:25:09;17.85;;;10.38;;
25057;SDS011;13057;50.978;11.034;2023-05-07T10:27:49;15.93;;;10.13;;
25057;SDS011;13057;50.978;11.034;2023-05-07T10:30:26;14.13;;;10.07;;
25057;SDS011;13057;50.978;11.034;2023-05-07T10:33:04;14.95;;;9.93;;
25057;SDS011;13057;50.978;11.034;2023-05-07T10:35:38;14.73;;;10.98;;
25057;SDS011;13057;50.978;11.034;2023-05-07T10:38:07;15.88;;;10.05;;
25057;SDS011;13057;50.978;11.034;2023-05-07T10:40:35;15.50;;;9.88;;
25057;SDS011;13057;50.978;11.034;2023-05-07T10:43:03;16.23;;;11.45;;
25057;SDS011;13057;50.978;11.034;2023-05-07T10:45:31;17.15;;;9.70;;
25057;SDS011;13057;50.978;11.034;2023-05-07T10:50:36;13.43;;;9.32;;
25057;SDS011;13057;50.978;11.034;2023-05-07T10:55:50;13.02;;;8.68;;
25057;SDS011;13057;50.978;11.034;2023-05-07T10:58:36;13.38;;;8.05;;
25057;SDS011;13057;50.978;11.034;2023-05-07T11:01:03;14.25;;;8.85;;
25057;SDS011;13057;50.978;11.034;2023-05-07T11:03:29;15.63;;;9.30;;
25057;SDS011;13057;50.978;11.034;2023-05-07T11:11:19;12.63;;;8.80;;
25057;SDS011;13057;50.978;11.034;2023-05-07T11:13:46;12.32;;;8.60;;
25057;SDS011;13057;50.978;11.034;2023-05-07T11:16:17;12.52;;;8.98;;
25057;SDS011;13057;50.978;11.034;2023-05-07T11:18:47;12.70;;;8.32;;
25057;SDS011;13057;50.978;11.034;2023-05-07T11:24:07;15.63;;;9.00;;
25057;SDS011;13057;50.978;11.034;2023-05-07T11:26:42;15.57;;;9.27;;
25057;SDS011;13057;50.978;11.034;2023-05-07T11:29:10;12.70;;;9.05;;
25057;SDS011;13057;50.978;11.034;2023-05-07T11:31:37;14.18;;;9.35;;
25057;SDS011;13057;50.978;11.034;2023-05-07T11:34:03;14.02;;;8.98;;
25057;SDS011;13057;50.978;11.034;2023-05-07T11:36:31;14.43;;;9.77;;
25057;SDS011;13057;50.978;11.034;2023-05-07T11:38:57;13.48;;;9.27;;
25057;SDS011;13057;50.978;11.034;2023-05-07T11:41:33;13.35;;;9.15;;
25057;SDS011;13057;50.978;11.034;2023-05-07T11:44:01;15.15;;;9.70;;
25057;SDS011;13057;50.978;11.034;2023-05-07T11:46:28;13.30;;;9.35;;
25057;SDS011;13057;50.978;11.034;2023-05-07T11:48:55;13.90;;;9.55;;
25057;SDS011;13057;50.978;11.034;2023-05-07T11:51:22;13.55;;;9.45;;
25057;SDS011;13057;50.978;11.034;2023-05-07T11:53:51;13.02;;;10.02;;
25057;SDS011;13057;50.978;11.034;2023-05-07T11:56:17;13.93;;;9.30;;
25057;SDS011;13057;50.978;11.034;2023-05-07T11:58:44;13.45;;;10.10;;
25057;SDS011;13057;50.978;11.034;2023-05-07T12:01:11;16.33;;;9.88;;
25057;SDS011;13057;50.978;11.034;2023-05-07T12:03:40;15.23;;;10.00;;
25057;SDS011;13057;50.978;11.034;2023-05-07T12:06:07;15.20;;;9.43;;
25057;SDS011;13057;50.978;11.034;2023-05-07T12:08:36;15.98;;;10.07;;
25057;SDS011;13057;50.978;11.034;2023-05-07T12:11:03;12.32;;;8.82;;
25057;SDS011;13057;50.978;11.034;2023-05-07T12:13:32;16.55;;;9.60;;
25057;SDS011;13057;50.978;11.034;2023-05-07T12:15:58;11.43;;;7.93;;
25057;SDS011;13057;50.978;11.034;2023-05-07T12:18:24;14.23;;;8.60;;
25057;SDS011;13057;50.978;11.034;2023-05-07T12:20:50;13.63;;;8.00;;
25057;SDS011;13057;50.978;11.034;2023-05-07T12:23:16;12.77;;;8.45;;
25057;SDS011;13057;50.978;11.034;2023-05-07T12:25:43;15.02;;;8.45;;
25057;SDS011;13057;50.978;11.034;2023-05-07T12:28:13;15.48;;;8.55;;
25057;SDS011;13057;50.978;11.034;2023-05-07T12:30:41;12.27;;;8.18;;
25057;SDS011;13057;50.978;11.034;2023-05-07T12:33:08;13.00;;;8.20;;
25057;SDS011;13057;50.978;11.034;2023-05-07T12:35:36;13.38;;;8.35;;
25057;SDS011;13057;50.978;11.034;2023-05-07T12:38:07;14.50;;;8.57;;
25057;SDS011;13057;50.978;11.034;2023-05-07T12:40:41;12.30;;;8.13;;
25057;SDS011;13057;50.978;11.034;2023-05-07T12:43:18;13.13;;;8.10;;
25057;SDS011;13057;50.978;11.034;2023-05-07T12:45:50;23.48;;;9.93;;
25057;SDS011;13057;50.978;11.034;2023-05-07T12:48:19;13.18;;;7.35;;
25057;SDS011;13057;50.978;11.034;2023-05-07T12:50:49;12.63;;;7.65;;
25057;SDS011;13057;50.978;11.034;2023-05-07T12:53:16;10.90;;;7.50;;
25057;SDS011;13057;50.978;11.034;2023-05-07T12:55:43;10.20;;;7.28;;
25057;SDS011;13057;50.978;11.034;2023-05-07T12:58:18;11.93;;;7.13;;
25057;SDS011;13057;50.978;11.034;2023-05-07T13:00:48;9.10;;;7.03;;
25057;SDS011;13057;50.978;11.034;2023-05-07T13:03:20;11.18;;;7.72;;
25057;SDS011;13057;50.978;11.034;2023-05-07T13:05:48;11.30;;;7.72;;
25057;SDS011;13057;50.978;11.034;2023-05-07T13:08:23;11.15;;;7.32;;
25057;SDS011;13057;50.978;11.034;2023-05-07T13:10:54;10.05;;;7.18;;
25057;SDS011;13057;50.978;11.034;2023-05-07T13:13:20;9.45;;;6.93;;
25057;SDS011;13057;50.978;11.034;2023-05-07T13:15:47;10.82;;;8.05;;
25057;SDS011;13057;50.978;11.034;2023-05-07T13:18:13;10.73;;;6.90;;
25057;SDS011;13057;50.978;11.034;2023-05-07T13:20:39;9.30;;;7.45;;
25057;SDS011;13057;50.978;11.034;2023-05-07T13:23:05;9.20;;;7.15;;
25057;SDS011;13057;50.978;11.034;2023-05-07T13:25:31;9.68;;;7.15;;
25057;SDS011;13057;50.978;11.034;2023-05-07T13:27:57;10.65;;;7.75;;
25057;SDS011;13057;50.978;11.034;2023-05-07T13:30:23;10.48;;;7.57;;
25057;SDS011;13057;50.978;11.034;2023-05-07T13:32:49;8.73;;;6.43;;
25057;SDS011;13057;50.978;11.034;2023-05-07T13:35:17;9.13;;;6.45;;
25057;SDS011;13057;50.978;11.034;2023-05-07T13:37:43;8.45;;;6.45;;
25057;SDS011;13057;50.978;11.034;2023-05-07T13:40:09;7.82;;;6.35;;
25057;SDS011;13057;50.978;11.034;2023-05-07T13:42:35;9.57;;;6.90;;
25057;SDS011;13057;50.978;11.034;2023-05-07T13:45:01;10.20;;;7.20;;
25057;SDS011;13057;50.978;11.034;2023-05-07T13:47:30;8.27;;;6.45;;
25057;SDS011;13057;50.978;11.034;2023-05-07T13:49:57;9.25;;;5.93;;
25057;SDS011;13057;50.978;11.034;2023-05-07T13:52:23;9.80;;;6.57;;
25057;SDS011;13057;50.978;11.034;2023-05-07T13:54:49;10.45;;;6.40;;
25057;SDS011;13057;50.978;11.034;2023-05-07T13:57:17;8.48;;;6.60;;
25057;SDS011;13057;50.978;11.034;2023-05-07T13:59:43;8.75;;;6.45;;
25057;SDS011;13057;50.978;11.034;2023-05-07T14:02:09;7.65;;;6.05;;
25057;SDS011;13057;50.978;11.034;2023-05-07T14:04:35;8.85;;;6.35;;
25057;SDS011;13057;50.978;11.034;2023-05-07T14:07:02;7.05;;;5.65;;
25057;SDS011;13057;50.978;11.034;2023-05-07T14:09:28;9.13;;;6.13;;
25057;SDS011;13057;50.978;11.034;2023-05-07T14:11:54;9.23;;;6.38;;
25057;SDS011;13057;50.978;11.034;2023-05-07T14:14:20;8.18;;;6.70;;
25057;SDS011;13057;50.978;11.034;2023-05-07T14:16:47;8.23;;;6.63;;
25057;SDS011;13057;50.978;11.034;2023-05-07T14:19:16;9.93;;;6.03;;
25057;SDS011;13057;50.978;11.034;2023-05-07T14:21:42;8.70;;;6.20;;
25057;SDS011;13057;50.978;11.034;2023-05-07T14:24:07;8.32;;;6.38;;
25057;SDS011;13057;50.978;11.034;2023-05-07T14:26:34;8.60;;;6.35;;
25057;SDS011;13057;50.978;11.034;2023-05-07T14:29:02;7.20;;;5.70;;